createdAt,value
2022-11-14T04:47:11.173Z,100.00
2022-11-14T04:50:32.509Z,100.00
2022-11-14T04:53:53.532Z,100.00
2022-11-14T04:57:14.375Z,100.00
2022-11-14T05:00:35.161Z,100.00
2022-11-14T05:03:56.208Z,100.00
2022-11-14T05:07:17.494Z,100.00
2022-11-14T05:10:43.508Z,100.00
2022-11-14T05:14:04.506Z,100.00
2022-11-14T05:17:25.849Z,100.00
2022-11-14T05:20:47.072Z,100.00
2022-11-14T05:24:08.327Z,100.00
2022-11-14T05:27:29.772Z,100.00
2022-11-14T05:30:51.128Z,100.00
2022-11-14T05:34:12.197Z,100.00
2022-11-14T05:37:34.454Z,100.00
2022-11-14T05:40:55.323Z,100.00
2022-11-14T05:44:16.254Z,100.00
2022-11-14T05:47:37.218Z,100.00
2022-11-14T05:51:06.901Z,100.00
2022-11-14T05:54:28.142Z,100.00
2022-11-14T05:57:49.022Z,100.00
2022-11-14T06:01:15.183Z,100.00
2022-11-14T06:04:36.078Z,100.00
2022-11-14T06:07:58.813Z,100.00
2022-11-14T06:11:21.035Z,100.00
2022-11-14T06:14:41.940Z,100.00
2022-11-14T06:18:02.884Z,100.00
2022-11-14T06:21:25.312Z,100.00
2022-11-14T06:24:46.368Z,100.00
2022-11-14T06:28:07.731Z,100.00
2022-11-14T06:31:28.701Z,100.00
2022-11-14T06:34:50.063Z,100.00
2022-11-14T06:38:11.326Z,100.00
2022-11-14T06:41:32.568Z,100.00
2022-11-14T06:44:53.724Z,100.00
2022-11-14T06:48:14.993Z,100.00
2022-11-14T06:51:35.897Z,100.00
2022-11-14T06:54:56.634Z,100.00
2022-11-14T06:58:17.517Z,100.00
2022-11-14T07:01:38.567Z,100.00
2022-11-14T07:05:00.015Z,100.00
2022-11-14T07:08:21.401Z,100.00
2022-11-14T07:11:45.361Z,100.00
2022-11-14T07:15:06.709Z,100.00
2022-11-14T07:18:30.349Z,100.00
2022-11-14T07:21:51.781Z,100.00
2022-11-14T07:25:12.897Z,100.00
2022-11-14T07:28:39.268Z,100.00
2022-11-14T07:32:00.580Z,100.00
2022-11-14T07:35:21.590Z,100.00
2022-11-14T07:38:42.753Z,100.00
2022-11-14T07:42:03.853Z,100.00
2022-11-14T07:45:24.881Z,100.00
2022-11-14T07:48:45.909Z,100.00
2022-11-14T07:52:07.305Z,100.00
2022-11-14T07:55:28.627Z,100.00
2022-11-14T07:58:49.527Z,100.00
2022-11-14T08:02:14.562Z,100.00
2022-11-14T08:05:35.664Z,100.00
2022-11-14T08:08:56.690Z,100.00
2022-11-14T08:12:17.804Z,100.00
2022-11-14T08:15:38.803Z,100.00
2022-11-14T08:19:00.591Z,100.00
2022-11-14T08:22:21.673Z,100.00
2022-11-14T08:25:42.718Z,100.00
2022-11-14T08:29:04.117Z,100.00
2022-11-14T08:32:25.020Z,100.00
2022-11-14T08:35:45.851Z,100.00
2022-11-14T08:39:06.642Z,100.00
2022-11-14T08:42:28.856Z,100.00
2022-11-14T08:45:50.000Z,100.00
2022-11-14T08:49:10.882Z,100.00
2022-11-14T08:52:34.894Z,100.00
2022-11-14T08:55:56.207Z,100.00
2022-11-14T08:59:17.253Z,100.00
2022-11-14T09:02:38.607Z,100.00
2022-11-14T09:05:59.869Z,100.00
2022-11-14T09:09:20.706Z,100.00
2022-11-14T09:12:41.829Z,100.00
2022-11-14T09:16:03.153Z,100.00
2022-11-14T09:19:25.157Z,100.00
2022-11-14T09:22:46.820Z,100.00
2022-11-14T09:26:09.689Z,100.00
2022-11-14T09:29:31.141Z,100.00
2022-11-14T09:32:52.027Z,100.00
2022-11-14T09:36:18.563Z,100.00
2022-11-14T09:39:40.821Z,100.00
2022-11-14T09:43:18.218Z,100.00
2022-11-14T09:47:01.414Z,100.00
2022-11-14T09:50:38.834Z,100.00
2022-11-14T09:54:16.416Z,100.00
2022-11-14T09:57:37.953Z,100.00
2022-11-14T10:01:09.602Z,100.00
2022-11-14T10:05:05.344Z,100.00
2022-11-14T10:08:42.110Z,100.00
2022-11-14T10:12:20.597Z,100.00
2022-11-14T10:15:53.658Z,100.00
2022-11-14T10:19:42.521Z,100.00
2022-11-14T10:23:42.179Z,100.00
2022-11-14T10:27:39.235Z,100.00
2022-11-14T10:31:35.279Z,100.00
2022-11-14T10:35:15.323Z,100.00
2022-11-14T10:38:41.360Z,100.00
2022-11-14T10:42:09.850Z,100.00
2022-11-14T10:45:34.769Z,100.00
2022-11-14T10:49:00.087Z,99.38
2022-11-14T10:52:28.291Z,100.00
2022-11-14T10:56:04.111Z,99.03
2022-11-14T10:59:27.751Z,99.98
2022-11-14T11:02:57.838Z,97.21
2022-11-14T11:06:26.650Z,95.15
2022-11-14T11:10:17.402Z,94.32
2022-11-14T11:13:55.715Z,94.18
2022-11-14T11:17:22.185Z,88.55
2022-11-14T11:20:43.170Z,86.34
2022-11-14T11:24:05.845Z,84.28
2022-11-14T11:27:29.727Z,82.13
2022-11-14T11:30:59.997Z,82.46
2022-11-14T11:34:30.708Z,77.61
2022-11-14T11:37:56.444Z,75.36
2022-11-14T11:41:26.002Z,70.81
2022-11-14T11:45:02.476Z,69.57
2022-11-14T11:48:27.321Z,67.54
2022-11-14T11:51:53.128Z,64.28
2022-11-14T11:55:23.247Z,61.08
2022-11-14T11:58:48.814Z,58.29
2022-11-14T12:02:30.535Z,54.28
2022-11-14T12:06:18.346Z,52.03
2022-11-14T12:13:42.426Z,43.93
2022-11-14T12:17:38.687Z,43.50
2022-11-14T12:21:42.295Z,38.57
2022-11-14T12:25:34.976Z,40.94
2022-11-14T12:29:05.788Z,35.79
2022-11-14T12:32:34.188Z,35.17
2022-11-14T12:35:56.646Z,31.76
2022-11-14T12:39:30.162Z,32.98
2022-11-14T12:42:51.937Z,31.77
2022-11-14T12:46:13.836Z,35.30
2022-11-14T12:49:47.021Z,37.74
2022-11-14T12:53:35.944Z,44.35
2022-11-14T12:57:00.067Z,48.54
2022-11-14T13:00:20.947Z,55.36
2022-11-14T13:04:11.693Z,59.93
2022-11-14T13:07:59.426Z,63.95
2022-11-14T13:12:01.810Z,68.86
2022-11-14T13:15:52.832Z,67.80
2022-11-14T13:19:40.710Z,70.63
2022-11-14T13:23:01.798Z,72.06
2022-11-14T13:26:25.464Z,72.14
2022-11-14T13:29:48.627Z,73.29
2022-11-14T13:33:09.983Z,76.31
2022-11-14T13:36:51.641Z,76.23
2022-11-14T13:40:34.834Z,76.51
2022-11-14T13:44:33.561Z,76.08
2022-11-14T13:48:14.336Z,77.30
2022-11-14T13:51:43.210Z,78.45
2022-11-14T13:55:04.968Z,78.23
2022-11-14T13:58:35.228Z,78.35
2022-11-14T14:02:05.484Z,78.88
2022-11-14T14:06:05.561Z,78.83
2022-11-14T14:10:05.616Z,80.10
2022-11-14T14:14:00.891Z,80.93
2022-11-14T14:17:35.002Z,82.86
2022-11-14T14:21:22.316Z,83.67
2022-11-14T14:25:09.077Z,84.21
2022-11-14T14:28:50.019Z,84.78
2022-11-14T14:32:13.492Z,83.95
2022-11-14T14:35:40.910Z,85.50
2022-11-14T14:39:25.302Z,85.39
2022-11-14T14:42:47.087Z,86.49
2022-11-14T14:46:08.661Z,87.93
2022-11-14T14:49:38.183Z,88.16
2022-11-14T14:53:01.469Z,88.45
2022-11-14T14:56:27.614Z,88.37
2022-11-14T14:59:59.282Z,89.25
2022-11-14T15:03:22.234Z,89.75
2022-11-14T15:06:46.942Z,89.33
2022-11-14T15:10:08.882Z,90.09
2022-11-14T15:13:31.210Z,89.44
2022-11-14T15:16:53.411Z,89.85
2022-11-14T15:20:28.410Z,91.02
2022-11-14T15:24:17.164Z,92.61
2022-11-14T15:27:53.352Z,93.48
2022-11-14T15:31:20.590Z,94.94
2022-11-14T15:34:41.393Z,95.49
2022-11-14T15:38:42.101Z,96.74
2022-11-14T15:42:19.614Z,97.86
2022-11-14T15:45:40.915Z,99.31
2022-11-14T15:49:21.736Z,100.00
2022-11-14T15:52:53.987Z,100.00
2022-11-14T15:56:15.287Z,100.00
2022-11-14T15:59:36.780Z,100.00
2022-11-14T16:02:58.272Z,100.00
2022-11-14T16:06:19.352Z,100.00
2022-11-14T16:09:40.884Z,100.00
2022-11-14T16:13:01.608Z,100.00
2022-11-14T16:16:22.595Z,100.00
2022-11-14T16:19:44.487Z,100.00
2022-11-14T16:23:06.047Z,100.00
2022-11-14T16:26:27.330Z,100.00
2022-11-14T16:29:48.490Z,100.00
2022-11-14T16:33:09.745Z,100.00
2022-11-14T16:36:32.001Z,100.00
2022-11-14T16:39:52.998Z,100.00
2022-11-14T16:43:15.143Z,100.00
2022-11-14T16:46:38.606Z,100.00
2022-11-14T16:50:01.416Z,100.00
2022-11-14T16:53:22.552Z,100.00
2022-11-14T16:56:43.828Z,100.00
